sensor_id;sensor_type;location;lat;lon;timestamp;P1;durP1;ratioP1;P2;durP2;ratioP2
39600;SDS011;25297;44.758;11.310;2023-01-29T00:01:24;38.85;;;22.77;;
39600;SDS011;25297;44.758;11.310;2023-01-29T00:03:50;36.60;;;21.25;;
39600;SDS011;25297;44.758;11.310;2023-01-29T00:06:16;44.97;;;22.55;;
39600;SDS011;25297;44.758;11.310;2023-01-29T00:08:42;40.92;;;21.95;;
39600;SDS011;25297;44.758;11.310;2023-01-29T00:11:08;37.20;;;21.70;;
39600;SDS011;25297;44.758;11.310;2023-01-29T00:13:34;36.97;;;21.42;;
39600;SDS011;25297;44.758;11.310;2023-01-29T00:16:00;37.58;;;22.20;;
39600;SDS011;25297;44.758;11.310;2023-01-29T00:18:26;36.72;;;21.48;;
39600;SDS011;25297;44.758;11.310;2023-01-29T00:20:54;41.95;;;20.20;;
39600;SDS011;25297;44.758;11.310;2023-01-29T00:23:20;33.08;;;19.77;;
39600;SDS011;25297;44.758;11.310;2023-01-29T00:25:46;42.50;;;22.67;;
39600;SDS011;25297;44.758;11.310;2023-01-29T00:28:12;34.85;;;19.52;;
39600;SDS011;25297;44.758;11.310;2023-01-29T00:30:39;36.05;;;18.15;;
39600;SDS011;25297;44.758;11.310;2023-01-29T00:33:05;37.15;;;19.65;;
39600;SDS011;25297;44.758;11.310;2023-01-29T00:35:31;36.42;;;20.35;;
39600;SDS011;25297;44.758;11.310;2023-01-29T00:37:57;34.88;;;18.58;;
39600;SDS011;25297;44.758;11.310;2023-01-29T00:40:23;36.20;;;20.15;;
39600;SDS011;25297;44.758;11.310;2023-01-29T00:42:49;36.47;;;19.98;;
39600;SDS011;25297;44.758;11.310;2023-01-29T00:45:33;34.53;;;19.45;;
39600;SDS011;25297;44.758;11.310;2023-01-29T00:48:01;35.53;;;18.13;;
39600;SDS011;25297;44.758;11.310;2023-01-29T00:50:27;33.72;;;19.65;;
39600;SDS011;25297;44.758;11.310;2023-01-29T00:52:52;34.55;;;19.42;;
39600;SDS011;25297;44.758;11.310;2023-01-29T00:55:18;34.88;;;20.60;;
39600;SDS011;25297;44.758;11.310;2023-01-29T00:57:44;33.13;;;19.98;;
39600;SDS011;25297;44.758;11.310;2023-01-29T01:00:11;30.45;;;18.77;;
39600;SDS011;25297;44.758;11.310;2023-01-29T01:02:39;33.45;;;20.00;;
39600;SDS011;25297;44.758;11.310;2023-01-29T01:05:24;36.10;;;20.67;;
39600;SDS011;25297;44.758;11.310;2023-01-29T01:07:50;32.67;;;19.05;;
39600;SDS011;25297;44.758;11.310;2023-01-29T01:10:19;33.30;;;19.33;;
39600;SDS011;25297;44.758;11.310;2023-01-29T01:12:57;36.13;;;19.92;;
39600;SDS011;25297;44.758;11.310;2023-01-29T01:15:26;36.47;;;19.80;;
39600;SDS011;25297;44.758;11.310;2023-01-29T01:17:55;32.03;;;18.23;;
39600;SDS011;25297;44.758;11.310;2023-01-29T01:20:23;32.92;;;19.42;;
39600;SDS011;25297;44.758;11.310;2023-01-29T01:22:51;31.98;;;18.75;;
39600;SDS011;25297;44.758;11.310;2023-01-29T01:25:18;36.55;;;19.60;;
39600;SDS011;25297;44.758;11.310;2023-01-29T01:27:44;34.03;;;20.30;;
39600;SDS011;25297;44.758;11.310;2023-01-29T01:30:11;34.42;;;19.27;;
39600;SDS011;25297;44.758;11.310;2023-01-29T01:32:39;36.28;;;18.92;;
39600;SDS011;25297;44.758;11.310;2023-01-29T01:35:05;34.50;;;20.42;;
39600;SDS011;25297;44.758;11.310;2023-01-29T01:37:31;34.75;;;20.05;;
39600;SDS011;25297;44.758;11.310;2023-01-29T01:39:57;41.72;;;21.45;;
39600;SDS011;25297;44.758;11.310;2023-01-29T01:42:26;33.15;;;20.15;;
39600;SDS011;25297;44.758;11.310;2023-01-29T01:45:01;33.50;;;18.92;;
39600;SDS011;25297;44.758;11.310;2023-01-29T01:49:56;38.10;;;20.40;;
39600;SDS011;25297;44.758;11.310;2023-01-29T01:52:31;31.17;;;17.77;;
39600;SDS011;25297;44.758;11.310;2023-01-29T01:54:57;31.90;;;19.23;;
39600;SDS011;25297;44.758;11.310;2023-01-29T01:57:24;32.08;;;17.80;;
39600;SDS011;25297;44.758;11.310;2023-01-29T01:59:55;31.17;;;18.58;;
39600;SDS011;25297;44.758;11.310;2023-01-29T02:02:27;35.47;;;18.85;;
39600;SDS011;25297;44.758;11.310;2023-01-29T02:05:12;33.42;;;18.50;;
39600;SDS011;25297;44.758;11.310;2023-01-29T02:07:57;30.75;;;18.20;;
39600;SDS011;25297;44.758;11.310;2023-01-29T02:10:43;34.92;;;18.83;;
39600;SDS011;25297;44.758;11.310;2023-01-29T02:13:10;34.30;;;18.95;;
39600;SDS011;25297;44.758;11.310;2023-01-29T02:15:39;28.83;;;17.25;;
39600;SDS011;25297;44.758;11.310;2023-01-29T02:18:10;32.07;;;19.17;;
39600;SDS011;25297;44.758;11.310;2023-01-29T02:20:37;31.02;;;18.40;;
39600;SDS011;25297;44.758;11.310;2023-01-29T02:39:32;38.13;;;21.48;;
39600;SDS011;25297;44.758;11.310;2023-01-29T02:44:54;34.00;;;19.85;;
39600;SDS011;25297;44.758;11.310;2023-01-29T02:54:53;35.13;;;20.13;;
39600;SDS011;25297;44.758;11.310;2023-01-29T02:57:28;37.70;;;21.48;;
39600;SDS011;25297;44.758;11.310;2023-01-29T02:59:59;36.50;;;22.05;;
39600;SDS011;25297;44.758;11.310;2023-01-29T03:02:40;37.92;;;21.58;;
39600;SDS011;25297;44.758;11.310;2023-01-29T03:05:18;37.55;;;21.52;;
39600;SDS011;25297;44.758;11.310;2023-01-29T03:07:52;39.15;;;21.77;;
39600;SDS011;25297;44.758;11.310;2023-01-29T03:12:53;40.42;;;23.20;;
39600;SDS011;25297;44.758;11.310;2023-01-29T03:15:47;40.40;;;22.60;;
39600;SDS011;25297;44.758;11.310;2023-01-29T03:18:20;38.70;;;21.92;;
39600;SDS011;25297;44.758;11.310;2023-01-29T03:20:52;40.50;;;22.52;;
39600;SDS011;25297;44.758;11.310;2023-01-29T03:23:29;44.25;;;22.98;;
39600;SDS011;25297;44.758;11.310;2023-01-29T03:26:19;46.17;;;25.20;;
39600;SDS011;25297;44.758;11.310;2023-01-29T03:29:05;39.92;;;22.85;;
39600;SDS011;25297;44.758;11.310;2023-01-29T03:31:51;41.92;;;22.50;;
39600;SDS011;25297;44.758;11.310;2023-01-29T03:34:42;42.83;;;22.80;;
39600;SDS011;25297;44.758;11.310;2023-01-29T03:37:20;37.92;;;22.30;;
39600;SDS011;25297;44.758;11.310;2023-01-29T03:39:53;41.10;;;23.90;;
39600;SDS011;25297;44.758;11.310;2023-01-29T03:42:22;40.45;;;22.85;;
39600;SDS011;25297;44.758;11.310;2023-01-29T03:52:52;43.05;;;24.00;;
39600;SDS011;25297;44.758;11.310;2023-01-29T04:01:01;40.47;;;22.90;;
39600;SDS011;25297;44.758;11.310;2023-01-29T04:03:34;43.35;;;22.52;;
39600;SDS011;25297;44.758;11.310;2023-01-29T04:06:08;40.67;;;23.38;;
39600;SDS011;25297;44.758;11.310;2023-01-29T04:11:35;42.50;;;23.38;;
39600;SDS011;25297;44.758;11.310;2023-01-29T04:14:05;40.40;;;21.98;;
39600;SDS011;25297;44.758;11.310;2023-01-29T04:16:36;42.13;;;23.23;;
39600;SDS011;25297;44.758;11.310;2023-01-29T04:19:05;42.97;;;23.73;;
39600;SDS011;25297;44.758;11.310;2023-01-29T04:21:31;41.75;;;23.23;;
39600;SDS011;25297;44.758;11.310;2023-01-29T04:23:58;41.05;;;23.50;;
39600;SDS011;25297;44.758;11.310;2023-01-29T04:26:32;43.72;;;23.83;;
39600;SDS011;25297;44.758;11.310;2023-01-29T04:43:08;38.55;;;21.73;;
39600;SDS011;25297;44.758;11.310;2023-01-29T04:48:20;42.15;;;22.33;;
39600;SDS011;25297;44.758;11.310;2023-01-29T04:51:05;41.03;;;22.48;;
39600;SDS011;25297;44.758;11.310;2023-01-29T04:53:59;43.88;;;22.55;;
39600;SDS011;25297;44.758;11.310;2023-01-29T04:59:30;38.78;;;21.23;;
39600;SDS011;25297;44.758;11.310;2023-01-29T05:02:05;45.70;;;24.15;;
39600;SDS011;25297;44.758;11.310;2023-01-29T05:04:34;39.65;;;23.27;;
39600;SDS011;25297;44.758;11.310;2023-01-29T05:07:04;37.78;;;22.65;;
39600;SDS011;25297;44.758;11.310;2023-01-29T05:09:34;41.45;;;22.92;;
39600;SDS011;25297;44.758;11.310;2023-01-29T05:12:01;43.92;;;22.77;;
39600;SDS011;25297;44.758;11.310;2023-01-29T05:14:29;39.17;;;21.73;;
39600;SDS011;25297;44.758;11.310;2023-01-29T05:16:58;36.85;;;20.83;;
39600;SDS011;25297;44.758;11.310;2023-01-29T05:19:27;40.50;;;21.40;;
39600;SDS011;25297;44.758;11.310;2023-01-29T05:21:53;36.95;;;21.77;;
39600;SDS011;25297;44.758;11.310;2023-01-29T05:24:20;41.30;;;24.08;;
39600;SDS011;25297;44.758;11.310;2023-01-29T05:26:48;38.40;;;22.23;;
39600;SDS011;25297;44.758;11.310;2023-01-29T05:29:33;39.15;;;21.38;;
39600;SDS011;25297;44.758;11.310;2023-01-29T05:31:59;42.08;;;21.52;;
39600;SDS011;25297;44.758;11.310;2023-01-29T05:34:26;36.15;;;20.88;;
39600;SDS011;25297;44.758;11.310;2023-01-29T05:36:51;44.53;;;22.60;;
39600;SDS011;25297;44.758;11.310;2023-01-29T05:39:17;39.17;;;21.70;;
39600;SDS011;25297;44.758;11.310;2023-01-29T05:41:43;36.13;;;20.88;;
39600;SDS011;25297;44.758;11.310;2023-01-29T05:44:09;42.20;;;21.90;;
39600;SDS011;25297;44.758;11.310;2023-01-29T05:46:35;37.40;;;20.88;;
39600;SDS011;25297;44.758;11.310;2023-01-29T05:49:01;40.30;;;21.17;;
39600;SDS011;25297;44.758;11.310;2023-01-29T05:51:27;37.65;;;21.60;;
39600;SDS011;25297;44.758;11.310;2023-01-29T05:53:52;38.22;;;21.52;;
39600;SDS011;25297;44.758;11.310;2023-01-29T05:56:18;41.20;;;21.00;;
39600;SDS011;25297;44.758;11.310;2023-01-29T05:58:44;39.15;;;20.30;;
39600;SDS011;25297;44.758;11.310;2023-01-29T06:01:19;40.25;;;22.77;;
39600;SDS011;25297;44.758;11.310;2023-01-29T06:03:47;43.45;;;22.83;;
39600;SDS011;25297;44.758;11.310;2023-01-29T06:06:13;43.20;;;23.88;;
39600;SDS011;25297;44.758;11.310;2023-01-29T06:08:39;42.03;;;22.77;;
39600;SDS011;25297;44.758;11.310;2023-01-29T06:11:08;38.83;;;22.20;;
39600;SDS011;25297;44.758;11.310;2023-01-29T06:13:36;42.17;;;23.93;;
39600;SDS011;25297;44.758;11.310;2023-01-29T06:16:08;37.17;;;21.65;;
39600;SDS011;25297;44.758;11.310;2023-01-29T06:18:34;36.95;;;20.88;;
39600;SDS011;25297;44.758;11.310;2023-01-29T06:21:02;39.85;;;21.70;;
39600;SDS011;25297;44.758;11.310;2023-01-29T06:23:29;40.30;;;21.90;;
39600;SDS011;25297;44.758;11.310;2023-01-29T06:25:58;38.72;;;21.67;;
39600;SDS011;25297;44.758;11.310;2023-01-29T06:28:25;41.03;;;21.50;;
39600;SDS011;25297;44.758;11.310;2023-01-29T06:30:50;39.60;;;21.52;;
39600;SDS011;25297;44.758;11.310;2023-01-29T06:33:16;44.28;;;21.55;;
39600;SDS011;25297;44.758;11.310;2023-01-29T06:35:41;37.53;;;20.88;;
39600;SDS011;25297;44.758;11.310;2023-01-29T06:38:07;41.85;;;22.65;;
39600;SDS011;25297;44.758;11.310;2023-01-29T06:40:33;41.97;;;21.73;;
39600;SDS011;25297;44.758;11.310;2023-01-29T06:42:59;37.17;;;21.20;;
39600;SDS011;25297;44.758;11.310;2023-01-29T06:45:25;38.58;;;21.58;;
39600;SDS011;25297;44.758;11.310;2023-01-29T06:47:51;41.97;;;21.42;;
39600;SDS011;25297;44.758;11.310;2023-01-29T06:50:16;42.20;;;22.42;;
39600;SDS011;25297;44.758;11.310;2023-01-29T06:52:42;42.88;;;23.13;;
39600;SDS011;25297;44.758;11.310;2023-01-29T06:55:08;50.97;;;24.92;;
39600;SDS011;25297;44.758;11.310;2023-01-29T06:57:33;48.17;;;23.33;;
39600;SDS011;25297;44.758;11.310;2023-01-29T06:59:59;46.85;;;23.85;;
39600;SDS011;25297;44.758;11.310;2023-01-29T07:02:25;43.38;;;22.88;;
39600;SDS011;25297;44.758;11.310;2023-01-29T07:04:50;39.20;;;22.98;;
39600;SDS011;25297;44.758;11.310;2023-01-29T07:07:16;41.65;;;23.55;;
39600;SDS011;25297;44.758;11.310;2023-01-29T07:09:42;43.28;;;23.80;;
39600;SDS011;25297;44.758;11.310;2023-01-29T07:12:08;38.05;;;23.17;;
39600;SDS011;25297;44.758;11.310;2023-01-29T07:14:34;41.13;;;22.75;;
39600;SDS011;25297;44.758;11.310;2023-01-29T07:17:00;41.40;;;21.83;;
39600;SDS011;25297;44.758;11.310;2023-01-29T07:19:26;33.05;;;19.27;;
39600;SDS011;25297;44.758;11.310;2023-01-29T07:21:51;35.45;;;19.95;;
39600;SDS011;25297;44.758;11.310;2023-01-29T07:24:17;37.45;;;20.35;;
39600;SDS011;25297;44.758;11.310;2023-01-29T07:26:43;37.13;;;19.75;;
39600;SDS011;25297;44.758;11.310;2023-01-29T07:29:09;35.50;;;21.15;;
39600;SDS011;25297;44.758;11.310;2023-01-29T07:31:34;34.83;;;20.33;;
39600;SDS011;25297;44.758;11.310;2023-01-29T07:34:00;33.85;;;19.90;;
39600;SDS011;25297;44.758;11.310;2023-01-29T07:36:26;43.25;;;21.30;;
39600;SDS011;25297;44.758;11.310;2023-01-29T07:38:52;38.95;;;20.92;;
39600;SDS011;25297;44.758;11.310;2023-01-29T07:41:18;38.38;;;19.77;;
39600;SDS011;25297;44.758;11.310;2023-01-29T07:43:43;35.88;;;20.13;;
39600;SDS011;25297;44.758;11.310;2023-01-29T07:46:09;36.40;;;19.70;;
39600;SDS011;25297;44.758;11.310;2023-01-29T07:48:35;37.55;;;20.52;;
39600;SDS011;25297;44.758;11.310;2023-01-29T07:51:01;34.08;;;18.52;;
39600;SDS011;25297;44.758;11.310;2023-01-29T07:53:27;34.47;;;19.63;;
39600;SDS011;25297;44.758;11.310;2023-01-29T07:55:53;34.65;;;20.65;;
39600;SDS011;25297;44.758;11.310;2023-01-29T07:58:19;34.03;;;19.80;;
39600;SDS011;25297;44.758;11.310;2023-01-29T08:00:44;32.03;;;19.63;;
39600;SDS011;25297;44.758;11.310;2023-01-29T08:03:11;34.10;;;19.20;;
39600;SDS011;25297;44.758;11.310;2023-01-29T08:05:40;38.08;;;20.60;;
39600;SDS011;25297;44.758;11.310;2023-01-29T08:08:05;37.10;;;21.25;;
39600;SDS011;25297;44.758;11.310;2023-01-29T08:10:32;35.03;;;20.13;;
39600;SDS011;25297;44.758;11.310;2023-01-29T08:12:59;37.03;;;20.40;;
39600;SDS011;25297;44.758;11.310;2023-01-29T08:15:26;36.95;;;19.83;;
39600;SDS011;25297;44.758;11.310;2023-01-29T08:17:52;37.88;;;20.88;;
39600;SDS011;25297;44.758;11.310;2023-01-29T08:20:18;30.10;;;18.95;;
39600;SDS011;25297;44.758;11.310;2023-01-29T08:22:45;35.00;;;19.80;;
39600;SDS011;25297;44.758;11.310;2023-01-29T08:25:11;43.58;;;21.23;;
39600;SDS011;25297;44.758;11.310;2023-01-29T08:27:37;38.83;;;21.00;;
39600;SDS011;25297;44.758;11.310;2023-01-29T08:30:04;33.53;;;20.13;;
39600;SDS011;25297;44.758;11.310;2023-01-29T08:32:31;36.63;;;20.15;;
39600;SDS011;25297;44.758;11.310;2023-01-29T08:34:57;34.83;;;19.52;;
39600;SDS011;25297;44.758;11.310;2023-01-29T08:37:22;34.08;;;19.75;;
39600;SDS011;25297;44.758;11.310;2023-01-29T08:39:48;37.75;;;20.33;;
39600;SDS011;25297;44.758;11.310;2023-01-29T08:42:13;36.70;;;19.83;;
39600;SDS011;25297;44.758;11.310;2023-01-29T08:44:39;33.63;;;19.38;;
39600;SDS011;25297;44.758;11.310;2023-01-29T08:47:05;45.88;;;22.50;;
39600;SDS011;25297;44.758;11.310;2023-01-29T08:49:30;35.05;;;20.27;;
39600;SDS011;25297;44.758;11.310;2023-01-29T08:51:56;40.88;;;21.23;;
39600;SDS011;25297;44.758;11.310;2023-01-29T08:54:22;38.08;;;20.65;;
39600;SDS011;25297;44.758;11.310;2023-01-29T08:56:48;37.95;;;20.38;;
39600;SDS011;25297;44.758;11.310;2023-01-29T08:59:14;34.80;;;20.55;;
39600;SDS011;25297;44.758;11.310;2023-01-29T09:01:40;37.15;;;21.00;;
39600;SDS011;25297;44.758;11.310;2023-01-29T09:04:06;35.53;;;20.83;;
39600;SDS011;25297;44.758;11.310;2023-01-29T09:06:31;36.67;;;21.27;;
39600;SDS011;25297;44.758;11.310;2023-01-29T09:08:57;34.55;;;20.77;;
39600;SDS011;25297;44.758;11.310;2023-01-29T09:11:23;36.45;;;20.50;;
39600;SDS011;25297;44.758;11.310;2023-01-29T09:13:48;38.30;;;22.17;;
39600;SDS011;25297;44.758;11.310;2023-01-29T09:16:14;39.05;;;21.65;;
39600;SDS011;25297;44.758;11.310;2023-01-29T09:18:39;36.95;;;21.05;;
39600;SDS011;25297;44.758;11.310;2023-01-29T09:21:05;40.13;;;22.15;;
39600;SDS011;25297;44.758;11.310;2023-01-29T09:23:31;35.92;;;20.95;;
39600;SDS011;25297;44.758;11.310;2023-01-29T09:25:57;33.25;;;20.42;;
39600;SDS011;25297;44.758;11.310;2023-01-29T09:28:22;37.53;;;21.40;;
39600;SDS011;25297;44.758;11.310;2023-01-29T09:30:48;35.80;;;21.17;;
39600;SDS011;25297;44.758;11.310;2023-01-29T09:33:14;37.65;;;21.55;;
39600;SDS011;25297;44.758;11.310;2023-01-29T09:35:40;40.92;;;22.40;;
39600;SDS011;25297;44.758;11.310;2023-01-29T09:38:10;45.75;;;25.05;;
39600;SDS011;25297;44.758;11.310;2023-01-29T09:43:14;40.53;;;21.83;;
39600;SDS011;25297;44.758;11.310;2023-01-29T09:45:53;38.83;;;21.30;;
39600;SDS011;25297;44.758;11.310;2023-01-29T09:48:27;36.05;;;20.50;;
39600;SDS011;25297;44.758;11.310;2023-01-29T09:50:56;33.92;;;19.70;;
39600;SDS011;25297;44.758;11.310;2023-01-29T09:53:47;33.50;;;20.25;;
39600;SDS011;25297;44.758;11.310;2023-01-29T09:56:36;35.83;;;20.70;;
39600;SDS011;25297;44.758;11.310;2023-01-29T09:59:02;33.15;;;20.60;;
39600;SDS011;25297;44.758;11.310;2023-01-29T10:01:35;37.70;;;18.67;;
39600;SDS011;25297;44.758;11.310;2023-01-29T10:12:15;34.92;;;20.85;;
39600;SDS011;25297;44.758;11.310;2023-01-29T10:26:29;35.15;;;19.40;;
39600;SDS011;25297;44.758;11.310;2023-01-29T10:28:57;34.38;;;20.73;;
39600;SDS011;25297;44.758;11.310;2023-01-29T10:31:30;34.08;;;19.98;;
39600;SDS011;25297;44.758;11.310;2023-01-29T10:36:48;35.85;;;19.85;;
39600;SDS011;25297;44.758;11.310;2023-01-29T11:00:27;35.53;;;21.05;;
39600;SDS011;25297;44.758;11.310;2023-01-29T11:02:59;42.72;;;22.52;;
39600;SDS011;25297;44.758;11.310;2023-01-29T11:05:50;38.60;;;21.58;;
39600;SDS011;25297;44.758;11.310;2023-01-29T11:08:22;35.13;;;21.20;;
39600;SDS011;25297;44.758;11.310;2023-01-29T11:10:59;34.58;;;20.58;;
39600;SDS011;25297;44.758;11.310;2023-01-29T11:16:16;35.63;;;20.75;;
39600;SDS011;25297;44.758;11.310;2023-01-29T11:21:31;36.10;;;20.98;;
39600;SDS011;25297;44.758;11.310;2023-01-29T11:24:13;36.83;;;21.60;;
39600;SDS011;25297;44.758;11.310;2023-01-29T11:26:41;33.97;;;19.77;;
39600;SDS011;25297;44.758;11.310;2023-01-29T11:32:02;32.25;;;20.38;;
39600;SDS011;25297;44.758;11.310;2023-01-29T11:34:31;34.47;;;21.17;;
39600;SDS011;25297;44.758;11.310;2023-01-29T11:37:01;34.22;;;20.38;;
39600;SDS011;25297;44.758;11.310;2023-01-29T11:39:29;38.00;;;21.80;;
39600;SDS011;25297;44.758;11.310;2023-01-29T11:49:40;34.83;;;20.38;;
39600;SDS011;25297;44.758;11.310;2023-01-29T11:52:13;31.10;;;19.15;;
39600;SDS011;25297;44.758;11.310;2023-01-29T11:54:55;30.17;;;19.55;;
39600;SDS011;25297;44.758;11.310;2023-01-29T12:04:56;31.85;;;19.15;;
39600;SDS011;25297;44.758;11.310;2023-01-29T12:07:25;31.65;;;19.23;;
39600;SDS011;25297;44.758;11.310;2023-01-29T12:09:53;32.70;;;19.17;;
39600;SDS011;25297;44.758;11.310;2023-01-29T12:15:18;31.55;;;18.42;;
39600;SDS011;25297;44.758;11.310;2023-01-29T12:17:56;30.27;;;18.08;;
39600;SDS011;25297;44.758;11.310;2023-01-29T12:20:47;29.40;;;16.25;;
39600;SDS011;25297;44.758;11.310;2023-01-29T12:23:38;31.17;;;19.10;;
39600;SDS011;25297;44.758;11.310;2023-01-29T12:26:17;32.30;;;17.58;;
39600;SDS011;25297;44.758;11.310;2023-01-29T12:29:01;28.80;;;18.27;;
39600;SDS011;25297;44.758;11.310;2023-01-29T12:31:45;29.58;;;19.08;;
39600;SDS011;25297;44.758;11.310;2023-01-29T12:39:42;28.65;;;18.35;;
39600;SDS011;25297;44.758;11.310;2023-01-29T12:42:09;33.78;;;19.65;;
39600;SDS011;25297;44.758;11.310;2023-01-29T12:49:54;26.73;;;16.50;;
39600;SDS011;25297;44.758;11.310;2023-01-29T12:52:33;32.58;;;17.23;;
39600;SDS011;25297;44.758;11.310;2023-01-29T12:55:02;27.83;;;17.92;;
39600;SDS011;25297;44.758;11.310;2023-01-29T12:57:56;28.58;;;17.25;;
39600;SDS011;25297;44.758;11.310;2023-01-29T13:00:42;25.42;;;14.52;;
39600;SDS011;25297;44.758;11.310;2023-01-29T13:05:55;29.95;;;15.20;;
39600;SDS011;25297;44.758;11.310;2023-01-29T13:11:00;20.85;;;12.55;;
39600;SDS011;25297;44.758;11.310;2023-01-29T13:16:03;18.13;;;12.35;;
39600;SDS011;25297;44.758;11.310;2023-01-29T13:21:22;22.33;;;16.08;;
39600;SDS011;25297;44.758;11.310;2023-01-29T13:24:03;21.35;;;13.63;;
39600;SDS011;25297;44.758;11.310;2023-01-29T13:26:35;22.67;;;11.70;;
39600;SDS011;25297;44.758;11.310;2023-01-29T13:29:01;19.27;;;11.77;;
39600;SDS011;25297;44.758;11.310;2023-01-29T13:31:33;24.08;;;11.88;;
39600;SDS011;25297;44.758;11.310;2023-01-29T13:37:11;18.27;;;11.23;;
39600;SDS011;25297;44.758;11.310;2023-01-29T13:39:54;16.88;;;10.65;;
39600;SDS011;25297;44.758;11.310;2023-01-29T13:44:53;14.10;;;9.13;;
39600;SDS011;25297;44.758;11.310;2023-01-29T13:47:54;16.95;;;10.35;;
39600;SDS011;25297;44.758;11.310;2023-01-29T13:55:27;17.08;;;10.27;;
39600;SDS011;25297;44.758;11.310;2023-01-29T13:58:02;16.35;;;10.68;;
39600;SDS011;25297;44.758;11.310;2023-01-29T14:10:41;17.02;;;10.23;;
39600;SDS011;25297;44.758;11.310;2023-01-29T14:18:15;17.95;;;10.38;;
39600;SDS011;25297;44.758;11.310;2023-01-29T14:23:28;16.17;;;10.45;;
39600;SDS011;25297;44.758;11.310;2023-01-29T14:26:01;17.08;;;9.27;;
39600;SDS011;25297;44.758;11.310;2023-01-29T14:28:29;15.05;;;9.95;;
39600;SDS011;25297;44.758;11.310;2023-01-29T14:30:56;21.65;;;10.85;;
39600;SDS011;25297;44.758;11.310;2023-01-29T14:33:27;15.77;;;10.05;;
39600;SDS011;25297;44.758;11.310;2023-01-29T14:36:10;19.33;;;11.82;;
39600;SDS011;25297;44.758;11.310;2023-01-29T14:38:38;18.83;;;11.52;;
39600;SDS011;25297;44.758;11.310;2023-01-29T14:41:20;18.15;;;10.90;;
39600;SDS011;25297;44.758;11.310;2023-01-29T14:46:59;18.75;;;11.02;;
39600;SDS011;25297;44.758;11.310;2023-01-29T14:52:36;19.48;;;12.23;;
39600;SDS011;25297;44.758;11.310;2023-01-29T14:55:05;16.38;;;9.75;;
39600;SDS011;25297;44.758;11.310;2023-01-29T14:57:35;19.17;;;10.93;;
39600;SDS011;25297;44.758;11.310;2023-01-29T15:00:03;18.13;;;9.95;;
39600;SDS011;25297;44.758;11.310;2023-01-29T15:02:40;19.42;;;11.25;;
39600;SDS011;25297;44.758;11.310;2023-01-29T15:05:10;18.63;;;10.57;;
39600;SDS011;25297;44.758;11.310;2023-01-29T15:08:26;18.20;;;10.70;;
39600;SDS011;25297;44.758;11.310;2023-01-29T15:10:44;16.15;;;10.50;;
39600;SDS011;25297;44.758;11.310;2023-01-29T15:13:37;17.98;;;10.70;;
39600;SDS011;25297;44.758;11.310;2023-01-29T15:16:10;17.70;;;11.65;;
39600;SDS011;25297;44.758;11.310;2023-01-29T15:18:42;18.27;;;10.75;;
39600;SDS011;25297;44.758;11.310;2023-01-29T15:21:10;19.13;;;11.82;;
39600;SDS011;25297;44.758;11.310;2023-01-29T15:23:38;19.60;;;13.57;;
39600;SDS011;25297;44.758;11.310;2023-01-29T15:26:11;22.80;;;12.35;;
39600;SDS011;25297;44.758;11.310;2023-01-29T15:28:42;16.90;;;10.98;;
39600;SDS011;25297;44.758;11.310;2023-01-29T15:31:12;18.67;;;10.43;;
39600;SDS011;25297;44.758;11.310;2023-01-29T15:33:43;17.40;;;10.57;;
39600;SDS011;25297;44.758;11.310;2023-01-29T15:36:15;16.23;;;9.60;;
39600;SDS011;25297;44.758;11.310;2023-01-29T15:38:44;16.75;;;10.60;;
39600;SDS011;25297;44.758;11.310;2023-01-29T15:41:15;22.52;;;11.27;;
39600;SDS011;25297;44.758;11.310;2023-01-29T15:43:44;22.67;;;13.43;;
39600;SDS011;25297;44.758;11.310;2023-01-29T15:48:51;27.88;;;15.80;;
39600;SDS011;25297;44.758;11.310;2023-01-29T15:51:25;29.35;;;16.80;;
39600;SDS011;25297;44.758;11.310;2023-01-29T15:53:53;34.55;;;17.15;;
39600;SDS011;25297;44.758;11.310;2023-01-29T15:56:31;45.05;;;22.17;;
39600;SDS011;25297;44.758;11.310;2023-01-29T15:59:01;57.83;;;27.60;;
39600;SDS011;25297;44.758;11.310;2023-01-29T16:01:28;45.25;;;22.00;;
39600;SDS011;25297;44.758;11.310;2023-01-29T16:03:55;44.05;;;23.40;;
39600;SDS011;25297;44.758;11.310;2023-01-29T16:06:26;39.72;;;20.77;;
39600;SDS011;25297;44.758;11.310;2023-01-29T16:09:02;38.42;;;19.45;;
39600;SDS011;25297;44.758;11.310;2023-01-29T16:11:29;36.92;;;18.35;;
39600;SDS011;25297;44.758;11.310;2023-01-29T16:13:56;25.73;;;14.48;;
39600;SDS011;25297;44.758;11.310;2023-01-29T16:16:23;25.55;;;13.48;;
39600;SDS011;25297;44.758;11.310;2023-01-29T16:18:49;23.20;;;13.45;;
39600;SDS011;25297;44.758;11.310;2023-01-29T16:21:27;25.15;;;13.57;;
39600;SDS011;25297;44.758;11.310;2023-01-29T16:24:00;24.03;;;12.73;;
39600;SDS011;25297;44.758;11.310;2023-01-29T16:26:27;26.17;;;13.63;;
39600;SDS011;25297;44.758;11.310;2023-01-29T16:29:02;20.48;;;12.18;;
39600;SDS011;25297;44.758;11.310;2023-01-29T16:31:30;23.45;;;11.98;;
39600;SDS011;25297;44.758;11.310;2023-01-29T16:33:56;19.48;;;10.88;;
39600;SDS011;25297;44.758;11.310;2023-01-29T16:36:24;17.88;;;11.02;;
39600;SDS011;25297;44.758;11.310;2023-01-29T16:38:55;21.35;;;10.73;;
39600;SDS011;25297;44.758;11.310;2023-01-29T16:41:35;22.40;;;10.95;;
39600;SDS011;25297;44.758;11.310;2023-01-29T16:44:03;22.35;;;11.68;;
39600;SDS011;25297;44.758;11.310;2023-01-29T16:46:55;22.45;;;11.23;;
39600;SDS011;25297;44.758;11.310;2023-01-29T16:51:55;19.73;;;10.98;;
39600;SDS011;25297;44.758;11.310;2023-01-29T16:54:42;19.13;;;11.15;;
39600;SDS011;25297;44.758;11.310;2023-01-29T16:57:14;24.58;;;11.30;;
39600;SDS011;25297;44.758;11.310;2023-01-29T16:59:46;22.95;;;12.55;;
39600;SDS011;25297;44.758;11.310;2023-01-29T17:04:48;21.80;;;11.80;;
39600;SDS011;25297;44.758;11.310;2023-01-29T17:07:16;24.83;;;11.68;;
39600;SDS011;25297;44.758;11.310;2023-01-29T17:09:53;21.02;;;11.35;;
39600;SDS011;25297;44.758;11.310;2023-01-29T17:12:23;23.50;;;11.75;;
39600;SDS011;25297;44.758;11.310;2023-01-29T17:14:53;22.25;;;12.27;;
39600;SDS011;25297;44.758;11.310;2023-01-29T17:19:57;24.60;;;12.68;;
39600;SDS011;25297;44.758;11.310;2023-01-29T17:22:26;25.20;;;11.55;;
39600;SDS011;25297;44.758;11.310;2023-01-29T17:24:52;22.63;;;12.07;;
39600;SDS011;25297;44.758;11.310;2023-01-29T17:27:18;21.73;;;12.15;;
39600;SDS011;25297;44.758;11.310;2023-01-29T17:29:46;27.83;;;13.30;;
39600;SDS011;25297;44.758;11.310;2023-01-29T17:32:12;24.05;;;12.52;;
39600;SDS011;25297;44.758;11.310;2023-01-29T17:34:37;30.10;;;13.07;;
39600;SDS011;25297;44.758;11.310;2023-01-29T17:37:03;30.98;;;15.50;;
39600;SDS011;25297;44.758;11.310;2023-01-29T17:39:29;28.05;;;16.70;;
39600;SDS011;25297;44.758;11.310;2023-01-29T17:41:55;32.00;;;15.88;;
39600;SDS011;25297;44.758;11.310;2023-01-29T17:44:22;32.38;;;14.98;;
39600;SDS011;25297;44.758;11.310;2023-01-29T17:46:51;31.38;;;15.68;;
39600;SDS011;25297;44.758;11.310;2023-01-29T17:51:50;29.88;;;15.75;;
39600;SDS011;25297;44.758;11.310;2023-01-29T17:54:17;32.97;;;16.38;;
39600;SDS011;25297;44.758;11.310;2023-01-29T17:56:43;29.48;;;14.13;;